Time;durP1;ratioP1;P1;durP2;ratioP2;P2;SDS_P1;SDS_P2;PMS_P1;PMS_P2;Temp;Humidity;BMP_temperature;BMP_pressure;BME280_temperature;BME280_humidity;BME280_pressure;Samples;Min_cycle;Max_cycle;Signal;HPM_P1;HPM_P2
2021/03/01 00:01:39;;;;;;;1.08;1.00;;;2.30;99.90;;;2.83;100.00;-20759.09;5034262;28;20175;-66
2021/03/01 00:04:06;;;;;;;0.70;0.60;;;2.50;99.90;;;2.80;100.00;-20758.25;5035195;28;20214;-65
2021/03/01 00:06:33;;;;;;;0.70;0.60;;;2.40;99.90;;;2.86;100.00;-20759.78;5039748;28;20197;-66
2021/03/01 00:09:00;;;;;;;0.70;0.60;;;2.40;99.90;;;2.82;100.00;-20758.81;5042737;28;20710;-66
2021/03/01 00:11:27;;;;;;;0.70;0.60;;;2.40;99.90;;;2.73;100.00;-20756.31;5047315;28;20193;-66
2021/03/01 00:13:54;;;;;;;0.70;0.63;;;2.40;99.90;;;2.57;100.00;-20751.84;5054248;28;20251;-68
2021/03/01 00:16:22;;;;;;;0.70;0.70;;;2.30;99.90;;;2.45;100.00;-20748.47;5054785;28;20232;-66
2021/03/01 00:18:49;;;;;;;0.70;0.60;;;2.20;99.90;;;2.39;100.00;-20747.09;5054611;28;20206;-66
2021/03/01 00:21:16;;;;;;;0.80;0.80;;;2.20;99.90;;;2.41;100.00;-20747.66;5059239;28;20537;-66
2021/03/01 00:23:43;;;;;;;0.70;0.60;;;2.10;99.90;;;2.36;100.00;-20746.13;5055041;28;20170;-66
2021/03/01 00:26:10;;;;;;;0.70;0.70;;;2.10;99.90;;;2.38;100.00;-20746.66;5047626;28;20749;-66
2021/03/01 00:28:37;;;;;;;0.73;0.68;;;1.90;99.90;;;2.46;100.00;-20748.75;5051553;28;20221;-66
2021/03/01 00:31:03;;;;;;;0.70;0.70;;;2.00;99.90;;;2.41;100.00;-20747.66;5054619;28;20554;-66
2021/03/01 00:33:31;;;;;;;0.70;0.70;;;2.00;99.90;;;2.38;100.00;-20746.81;5054595;28;20288;-66
2021/03/01 00:35:58;;;;;;;0.70;0.60;;;1.90;99.90;;;2.33;100.00;-20745.28;5035270;28;20200;-67
2021/03/01 00:38:25;;;;;;;0.70;0.70;;;1.90;99.90;;;2.20;100.00;-20741.78;5053658;28;20251;-66
2021/03/01 00:40:52;;;;;;;0.70;0.60;;;1.80;99.90;;;2.20;100.00;-20741.78;5052756;28;20561;-66
2021/03/01 00:43:19;;;;;;;0.70;0.65;;;1.80;99.90;;;2.26;100.00;-20743.47;5053850;28;20185;-68
2021/03/01 00:45:46;;;;;;;0.70;0.60;;;1.80;99.90;;;2.24;100.00;-20742.91;5054071;28;20190;-67
2021/03/01 00:48:13;;;;;;;0.70;0.70;;;1.80;99.90;;;2.14;100.00;-20740.09;5053235;28;20586;-66
2021/03/01 00:50:41;;;;;;;0.75;0.70;;;1.70;99.90;;;2.12;100.00;-20739.69;5052468;28;20198;-67
2021/03/01 00:53:08;;;;;;;0.80;0.70;;;1.80;99.90;;;2.01;100.00;-20736.47;5053184;28;20216;-67
2021/03/01 00:55:35;;;;;;;0.70;0.70;;;1.60;99.90;;;1.89;100.00;-20733.41;5048821;28;20292;-67
2021/03/01 00:58:03;;;;;;;0.80;0.70;;;1.60;99.90;;;1.92;100.00;-20734.25;5052935;28;20201;-66
2021/03/01 01:00:30;;;;;;;0.70;0.60;;;1.50;99.90;;;1.91;100.00;-20733.97;5051376;28;20189;-66
2021/03/01 01:03:03;;;;;;;0.73;0.70;;;1.50;99.90;;;1.77;100.00;-20730.06;5052470;28;20670;-66
2021/03/01 01:05:57;;;;;;;1.77;1.67;;;1.40;99.90;;;1.65;100.00;-20726.69;5047902;28;20675;-67
2021/03/01 01:08:24;;;;;;;0.75;0.70;;;1.40;99.90;;;1.61;100.00;-20725.56;5037485;28;20291;-66
2021/03/01 01:10:51;;;;;;;0.70;0.60;;;1.30;99.90;;;1.47;100.00;-20721.81;5056338;28;20203;-68
2021/03/01 01:13:18;;;;;;;0.70;0.70;;;1.20;99.90;;;1.39;100.00;-20719.56;5061598;28;20217;-67
2021/03/01 01:15:45;;;;;;;0.93;0.93;;;1.20;99.90;;;1.29;100.00;-20716.91;5054208;28;20228;-67
2021/03/01 01:18:12;;;;;;;0.80;0.70;;;1.20;99.90;;;1.32;100.00;-20717.75;5050353;28;20264;-67
2021/03/01 01:20:42;;;;;;;0.70;0.60;;;1.10;99.90;;;1.35;100.00;-20718.44;5039346;28;20193;-68
2021/03/01 01:23:10;;;;;;;0.80;0.80;;;1.10;99.90;;;1.29;100.00;-20716.78;5049092;28;20189;-67
2021/03/01 01:25:37;;;;;;;0.70;0.70;;;1.10;99.90;;;1.26;100.00;-20715.94;5034434;28;20285;-67
2021/03/01 01:28:05;;;;;;;0.70;0.60;;;1.10;99.90;;;1.25;100.00;-20715.66;5033448;28;20249;-67
2021/03/01 01:30:32;;;;;;;0.70;0.60;;;1.00;99.90;;;1.26;100.00;-20716.06;5035136;28;20265;-68
2021/03/01 01:32:59;;;;;;;0.70;0.60;;;1.00;99.90;;;1.16;100.00;-20713.41;5032897;28;20256;-66
2021/03/01 01:35:26;;;;;;;0.70;0.70;;;0.90;99.90;;;1.10;100.00;-20711.75;5047029;28;20281;-66
2021/03/01 01:37:53;;;;;;;1.00;1.00;;;0.90;99.90;;;1.17;100.00;-20713.56;5046385;28;20248;-66
2021/03/01 01:40:23;;;;;;;0.80;0.80;;;0.90;99.90;;;1.42;100.00;-20720.41;5052456;28;20586;-67
2021/03/01 01:42:51;;;;;;;0.70;0.70;;;0.80;99.90;;;1.30;100.00;-20717.06;5053037;28;20170;-66
2021/03/01 01:45:22;;;;;;;0.80;0.80;;;1.00;99.90;;;1.40;100.00;-20720.00;5053802;28;20254;-67
2021/03/01 01:47:51;;;;;;;0.70;0.70;;;1.00;99.90;;;1.52;100.00;-20723.19;5050444;28;20212;-66
2021/03/01 01:50:20;;;;;;;0.70;0.60;;;1.00;99.90;;;1.16;100.00;-20713.41;5046855;28;20190;-67
2021/03/01 01:52:48;;;;;;;0.80;0.73;;;1.00;99.90;;;1.16;100.00;-20713.28;5044636;28;20238;-67
2021/03/01 01:55:16;;;;;;;0.70;0.70;;;0.90;99.90;;;1.27;100.00;-20716.34;5041739;28;20249;-67
2021/03/01 01:57:45;;;;;;;0.70;0.70;;;0.80;99.90;;;1.30;100.00;-20717.19;5052760;28;20265;-66
2021/03/01 02:00:48;;;;;;;0.70;0.60;;;0.80;99.90;;;1.10;100.00;-20711.59;5053586;28;20197;-66
2021/03/01 02:03:50;;;;;;;0.70;0.60;;;0.80;99.90;;;1.08;100.00;-20711.03;5052413;28;20228;-67
2021/03/01 02:06:30;;;;;;;0.80;0.73;;;0.80;99.90;;;0.99;100.00;-20708.66;5037846;28;20187;-67
2021/03/01 02:09:44;;;;;;;0.70;0.70;;;0.80;99.90;;;1.11;100.00;-20712.03;5053427;28;20243;-67
2021/03/01 02:12:14;;;;;;;0.80;0.70;;;0.80;99.90;;;1.20;100.00;-20714.41;4971838;28;20552;-67
2021/03/01 02:15:03;;;;;;;0.70;0.70;;;0.80;99.90;;;1.10;100.00;-20711.59;5023179;28;20605;-66
2021/03/01 02:17:31;;;;;;;0.80;0.70;;;0.80;99.90;;;0.99;100.00;-20708.66;5033273;28;20269;-67
2021/03/01 02:19:58;;;;;;;0.70;0.70;;;0.80;99.90;;;0.99;100.00;-20708.53;5038290;28;20215;-66
2021/03/01 02:22:27;;;;;;;0.70;0.60;;;0.70;99.90;;;1.00;100.00;-20708.81;5050855;28;20646;-67
2021/03/01 02:24:59;;;;;;;0.80;0.80;;;0.70;99.90;;;0.88;100.00;-20705.72;5051966;28;20189;-67
2021/03/01 02:27:31;;;;;;;0.80;0.80;;;0.60;99.90;;;0.80;100.00;-20703.50;5032779;28;20186;-67
2021/03/01 02:30:05;;;;;;;0.80;0.73;;;0.60;99.90;;;0.77;100.00;-20702.66;5033220;28;20266;-66
2021/03/01 02:32:36;;;;;;;0.80;0.70;;;0.50;99.90;;;0.69;100.00;-20700.56;5033656;28;20793;-66
2021/03/01 02:35:07;;;;;;;0.70;0.68;;;0.50;99.90;;;0.91;100.00;-20706.56;5033098;28;20190;-67
2021/03/01 02:37:39;;;;;;;0.70;0.70;;;0.40;99.90;;;0.82;100.00;-20704.06;5044932;28;20193;-66
2021/03/01 02:40:08;;;;;;;0.70;0.70;;;0.40;99.90;;;0.91;100.00;-20706.56;5052317;28;20186;-66
2021/03/01 02:42:37;;;;;;;0.80;0.70;;;0.40;99.90;;;0.77;100.00;-20702.66;5050881;28;20186;-66
2021/03/01 02:45:06;;;;;;;0.70;0.70;;;0.50;99.90;;;0.62;100.00;-20698.44;5052288;28;20633;-66
2021/03/01 02:47:34;;;;;;;0.70;0.70;;;0.40;99.90;;;0.63;100.00;-20698.75;5051071;28;20633;-66
2021/03/01 02:50:03;;;;;;;0.70;0.70;;;0.30;99.90;;;0.54;100.00;-20696.34;5051235;28;20213;-66
2021/03/01 02:52:31;;;;;;;0.70;0.60;;;0.20;99.90;;;0.42;100.00;-20693.13;5052911;28;20204;-66
2021/03/01 02:55:01;;;;;;;0.70;0.68;;;0.20;99.90;;;0.35;100.00;-20691.19;5051264;28;20279;-67
2021/03/01 02:57:29;;;;;;;0.77;0.75;;;0.10;99.90;;;0.32;100.00;-20690.34;5031257;28;20281;-68
2021/03/01 02:59:57;;;;;;;0.70;0.70;;;0.00;99.90;;;0.30;100.00;-20689.78;5032813;28;20187;-67
2021/03/01 03:02:25;;;;;;;0.77;0.70;;;-0.10;99.90;;;0.16;100.00;-20685.88;5032974;28;20695;-66
2021/03/01 03:04:53;;;;;;;0.75;0.70;;;0.00;99.90;;;0.35;100.00;-20691.19;5033399;28;20218;-67
2021/03/01 03:07:21;;;;;;;0.82;0.82;;;0.00;99.90;;;0.21;100.00;-20687.25;5046442;28;20225;-66
2021/03/01 03:09:48;;;;;;;0.80;0.80;;;0.00;99.90;;;0.34;100.00;-20690.75;5054073;28;20243;-67
2021/03/01 03:12:18;;;;;;;0.80;0.80;;;-0.10;99.90;;;0.26;100.00;-20688.53;5036089;28;20203;-66
2021/03/01 03:14:45;;;;;;;0.70;0.60;;;-0.10;99.90;;;0.18;100.00;-20686.56;5036190;28;20673;-66
2021/03/01 03:17:12;;;;;;;0.70;0.70;;;-0.10;99.90;;;0.21;100.00;-20687.25;5036218;28;20620;-66
2021/03/01 03:19:43;;;;;;;0.68;0.50;;;-0.10;99.90;;;0.19;100.00;-20686.84;5040879;28;20637;-67
2021/03/01 03:22:11;;;;;;;0.73;0.70;;;-0.10;99.90;;;0.12;100.00;-20684.75;5055084;28;20634;-67
2021/03/01 03:24:39;;;;;;;0.70;0.70;;;-0.10;99.90;;;0.11;100.00;-20684.59;5044542;28;20552;-69
2021/03/01 03:27:06;;;;;;;0.70;0.60;;;-0.20;99.90;;;0.16;100.00;-20686.00;5053924;28;20276;-67
2021/03/01 03:29:34;;;;;;;0.75;0.70;;;-0.20;99.90;;;0.09;100.00;-20683.91;5055844;28;20587;-68
2021/03/01 03:32:01;;;;;;;0.70;0.70;;;-0.20;99.90;;;0.04;100.00;-20682.66;5055168;28;20243;-67
2021/03/01 03:34:28;;;;;;;0.70;0.63;;;-0.10;99.90;;;0.11;100.00;-20684.47;5055701;28;20216;-67
2021/03/01 03:37:05;;;;;;;0.80;0.70;;;-0.20;99.90;;;0.03;100.00;-20682.22;5055030;28;20239;-67
2021/03/01 03:39:36;;;;;;;0.70;0.70;;;-0.20;99.90;;;0.02;100.00;-20681.94;5036334;28;20228;-67
2021/03/01 03:42:05;;;;;;;0.73;0.70;;;-0.20;99.90;;;0.05;100.00;-20682.78;5058205;28;20285;-67
2021/03/01 03:44:36;;;;;;;0.80;0.70;;;-0.30;99.90;;;0.05;100.00;-20682.94;5059004;28;20192;-67
2021/03/01 03:47:05;;;;;;;0.80;0.70;;;-0.40;99.90;;;-0.06;100.00;-20679.84;5075817;28;20173;-68
2021/03/01 03:49:35;;;;;;;0.75;0.68;;;-0.30;99.90;;;-0.08;100.00;-20679.41;5062087;28;20229;-66
2021/03/01 03:52:05;;;;;;;0.70;0.63;;;-0.40;99.90;;;0.04;100.00;-20682.66;5055003;28;20201;-66
2021/03/01 03:54:35;;;;;;;0.70;0.70;;;-0.40;99.90;;;-0.16;100.00;-20677.19;5054936;28;20212;-67
2021/03/01 03:57:07;;;;;;;0.70;0.68;;;-0.40;99.90;;;-0.16;100.00;-20677.03;5036786;28;20185;-67
2021/03/01 03:59:39;;;;;;;0.70;0.65;;;-0.30;99.90;;;-0.07;100.00;-20679.72;5043724;28;20281;-68
2021/03/01 04:02:09;;;;;;;0.70;0.60;;;-0.40;99.90;;;0.12;100.00;-20684.88;5055124;28;20642;-68
2021/03/01 04:04:38;;;;;;;0.70;0.70;;;-0.40;99.90;;;0.23;100.00;-20687.81;5055148;28;20210;-66
2021/03/01 04:07:07;;;;;;;0.70;0.70;;;-0.30;99.90;;;-0.02;100.00;-20681.09;5053958;28;20186;-69
2021/03/01 04:09:36;;;;;;;0.70;0.70;;;-0.20;99.90;;;-0.05;100.00;-20680.25;5053416;28;20638;-69
2021/03/01 04:12:03;;;;;;;0.80;0.73;;;-0.30;99.90;;;-0.08;100.00;-20679.28;5036861;28;20620;-67
2021/03/01 04:14:32;;;;;;;0.70;0.70;;;-0.30;99.90;;;0.01;100.00;-20681.66;5043972;28;20285;-68
2021/03/01 04:17:04;;;;;;;0.70;0.60;;;-0.50;99.90;;;-0.06;100.00;-20679.97;5054324;28;20185;-69
2021/03/01 04:19:34;;;;;;;0.70;0.68;;;-0.60;99.90;;;-0.31;100.00;-20672.97;5054747;28;20210;-66
2021/03/01 04:22:01;;;;;;;0.70;0.70;;;-0.60;99.90;;;-0.26;100.00;-20674.38;5054660;28;20190;-69
2021/03/01 04:24:30;;;;;;;0.73;0.70;;;-0.60;99.90;;;-0.33;100.00;-20672.56;5053023;28;20281;-67
2021/03/01 04:27:01;;;;;;;0.70;0.70;;;-0.70;99.90;;;-0.37;100.00;-20671.44;5046543;28;20186;-67
2021/03/01 04:29:29;;;;;;;0.80;0.70;;;-0.70;99.90;;;-0.37;100.00;-20671.44;5059953;28;20281;-69
2021/03/01 04:31:57;;;;;;;0.80;0.80;;;-0.70;99.90;;;-0.34;100.00;-20672.16;5057496;28;20209;-66
2021/03/01 04:34:27;;;;;;;0.70;0.60;;;-0.60;99.90;;;-0.36;100.00;-20671.59;5053164;28;20278;-69
2021/03/01 04:36:55;;;;;;;0.73;0.70;;;-0.60;99.90;;;-0.48;100.00;-20668.34;5053068;28;20266;-67
2021/03/01 04:39:23;;;;;;;0.70;0.70;;;-0.80;99.90;;;-0.48;100.00;-20668.34;5043481;28;20274;-67
2021/03/01 04:41:51;;;;;;;0.75;0.73;;;-0.80;99.90;;;-0.53;100.00;-20667.09;5050477;28;20269;-67
2021/03/01 04:44:18;;;;;;;0.80;0.70;;;-0.90;99.90;;;-0.52;100.00;-20667.38;5054807;28;20186;-66
2021/03/01 04:46:49;;;;;;;0.70;0.63;;;-0.90;99.90;;;-0.53;100.00;-20667.09;5065375;28;20279;-70
2021/03/01 04:49:16;;;;;;;0.80;0.75;;;-0.90;99.90;;;-0.44;100.00;-20669.34;5054455;28;20197;-67
2021/03/01 04:51:44;;;;;;;0.70;0.70;;;-0.90;99.90;;;-0.52;100.00;-20667.38;5052797;28;20192;-67
2021/03/01 04:54:12;;;;;;;1.05;0.98;;;-0.90;99.90;;;-0.37;100.00;-20671.31;5047839;28;20633;-67
2021/03/01 04:56:43;;;;;;;0.80;0.80;;;-1.00;99.90;;;-0.31;100.00;-20673.13;5049233;28;20763;-67
2021/03/01 04:59:13;;;;;;;0.70;0.60;;;-0.80;99.90;;;-0.26;100.00;-20674.53;5045191;28;20178;-67
2021/03/01 05:01:41;;;;;;;0.70;0.68;;;-0.60;99.90;;;-0.22;100.00;-20675.50;5058422;28;20275;-68
2021/03/01 05:04:09;;;;;;;0.77;0.77;;;-0.60;99.90;;;-0.37;100.00;-20671.44;5049600;28;20213;-67
2021/03/01 05:06:36;;;;;;;0.70;0.60;;;-0.70;99.90;;;-0.55;100.00;-20666.53;5053753;28;20236;-68
2021/03/01 05:09:05;;;;;;;0.70;0.70;;;-0.70;99.90;;;-0.58;100.00;-20665.56;5045572;28;20214;-67
2021/03/01 05:11:34;;;;;;;0.70;0.70;;;-0.80;99.90;;;-0.68;100.00;-20662.91;5055722;28;20291;-67
2021/03/01 05:14:04;;;;;;;0.70;0.60;;;-0.90;99.90;;;-0.68;100.00;-20662.91;5073980;28;20219;-67
2021/03/01 05:16:32;;;;;;;0.70;0.70;;;-0.90;99.90;;;-0.72;100.00;-20661.78;5065674;28;20591;-67
2021/03/01 05:18:59;;;;;;;0.70;0.70;;;-1.00;99.90;;;-0.76;100.00;-20660.66;5042852;28;20747;-67
2021/03/01 05:21:27;;;;;;;0.80;0.77;;;-1.10;99.90;;;-0.69;100.00;-20662.47;5054573;28;20224;-68
2021/03/01 05:23:54;;;;;;;0.85;0.85;;;-1.10;99.90;;;-0.84;100.00;-20658.41;5057655;28;20192;-68
2021/03/01 05:26:22;;;;;;;0.70;0.65;;;-1.20;99.90;;;-0.74;100.00;-20661.22;5052598;28;20205;-68
2021/03/01 05:28:50;;;;;;;0.70;0.57;;;-1.20;99.90;;;-0.80;100.00;-20659.69;5052912;28;20258;-67
2021/03/01 05:31:17;;;;;;;0.80;0.80;;;-1.10;99.90;;;-0.78;100.00;-20660.09;5051041;28;20252;-68
2021/03/01 05:33:45;;;;;;;0.70;0.60;;;-1.10;99.90;;;-0.82;100.00;-20658.97;5039328;28;20217;-68
2021/03/01 05:36:13;;;;;;;1.65;1.40;;;-1.20;99.90;;;-0.93;100.00;-20656.03;5048707;28;20232;-69
2021/03/01 05:38:39;;;;;;;0.80;0.77;;;-1.10;99.90;;;-0.82;100.00;-20659.13;5050505;28;20232;-68
2021/03/01 05:41:09;;;;;;;0.70;0.70;;;-1.10;99.90;;;-0.73;100.00;-20661.63;5031308;28;20183;-68
2021/03/01 05:43:37;;;;;;;0.70;0.60;;;-1.10;99.90;;;-0.88;100.00;-20657.31;5031151;28;20197;-68
2021/03/01 05:46:07;;;;;;;0.73;0.70;;;-1.10;99.90;;;-0.85;100.00;-20658.13;5037189;28;20268;-68
2021/03/01 05:48:35;;;;;;;0.75;0.70;;;-1.10;99.90;;;-0.88;100.00;-20657.31;5051321;28;20197;-69
2021/03/01 05:51:04;;;;;;;0.70;0.60;;;-1.10;99.90;;;-0.83;100.00;-20658.69;5049686;28;20488;-68
2021/03/01 05:53:35;;;;;;;0.70;0.70;;;-1.20;99.90;;;-0.89;100.00;-20657.00;5060667;28;20254;-67
2021/03/01 05:56:03;;;;;;;0.70;0.70;;;-1.20;99.90;;;-0.89;100.00;-20657.00;5072068;28;20185;-68
2021/03/01 05:58:30;;;;;;;0.70;0.70;;;-1.20;99.90;;;-0.75;100.00;-20660.94;5073424;28;20673;-67
2021/03/01 06:01:02;;;;;;;0.70;0.70;;;-1.20;99.90;;;-0.81;100.00;-20659.25;5072427;28;20279;-68
2021/03/01 06:03:30;;;;;;;0.80;0.80;;;-1.30;99.90;;;-0.82;100.00;-20658.97;5073097;28;20204;-68
2021/03/01 06:05:58;;;;;;;0.70;0.70;;;-1.30;99.90;;;-0.84;100.00;-20658.41;5072022;28;20673;-68
2021/03/01 06:08:25;;;;;;;0.80;0.80;;;-1.30;99.90;;;-0.98;100.00;-20654.78;5044619;28;20233;-68
2021/03/01 06:10:56;;;;;;;0.70;0.70;;;-1.20;99.90;;;-0.79;100.00;-20659.97;5034814;28;20194;-68
2021/03/01 06:13:24;;;;;;;0.98;0.98;;;-1.10;99.90;;;-0.66;100.00;-20663.47;5044700;28;20205;-68
2021/03/01 06:15:54;;;;;;;0.70;0.60;;;-1.20;99.90;;;-0.36;100.00;-20671.59;5052247;28;20239;-68
2021/03/01 06:18:23;;;;;;;0.80;0.80;;;-1.10;99.90;;;-0.38;100.00;-20671.03;5053541;28;20213;-68
2021/03/01 06:20:51;;;;;;;0.70;0.60;;;-1.10;99.90;;;-0.53;100.00;-20667.09;5052805;28;20189;-69
2021/03/01 06:23:29;;;;;;;0.70;0.60;;;-1.00;99.90;;;-0.62;100.00;-20664.59;5053018;28;20185;-69
2021/03/01 06:26:18;;;;;;;0.70;0.63;;;-1.10;99.90;;;-0.69;100.00;-20662.63;5052856;28;20225;-67
2021/03/01 06:28:47;;;;;;;0.70;0.70;;;-1.10;99.90;;;-0.76;100.00;-20660.66;5053677;28;20213;-68
2021/03/01 06:31:36;;;;;;;0.70;0.70;;;-1.20;99.90;;;-0.76;100.00;-20660.81;5066338;28;20726;-68
2021/03/01 06:34:27;;;;;;;0.73;0.70;;;-1.20;99.90;;;-0.80;100.00;-20659.53;5073604;28;20610;-68
2021/03/01 06:37:04;;;;;;;0.70;0.70;;;-1.20;99.90;;;-0.69;100.00;-20662.63;5069768;28;20250;-68
2021/03/01 06:39:35;;;;;;;0.70;0.70;;;-1.20;99.90;;;-0.66;100.00;-20663.47;5051706;28;20266;-68
2021/03/01 06:42:21;;;;;;;0.85;0.85;;;-1.10;99.90;;;-0.73;100.00;-20661.50;5057251;28;20178;-68
2021/03/01 06:45:13;;;;;;;0.70;0.60;;;-1.10;99.90;;;-0.69;100.00;-20662.63;5057054;28;20178;-68
2021/03/01 06:47:51;;;;;;;0.70;0.60;;;-1.10;99.90;;;-0.67;100.00;-20663.03;5056689;28;20174;-68
2021/03/01 06:50:32;;;;;;;0.80;0.80;;;-1.00;99.90;;;-0.61;100.00;-20664.72;5054665;28;20184;-70
2021/03/01 06:53:15;;;;;;;0.70;0.70;;;-1.00;99.90;;;-0.52;100.00;-20667.25;5044843;28;20678;-68
2021/03/01 06:56:06;;;;;;;0.80;0.80;;;-1.00;99.90;;;-0.49;100.00;-20668.22;5036390;28;20179;-68
2021/03/01 06:58:36;;;;;;;0.70;0.60;;;-1.00;99.90;;;-0.20;100.00;-20675.94;5046015;28;20251;-69
2021/03/01 07:01:08;;;;;;;0.70;0.60;;;-0.90;99.90;;;-0.34;100.00;-20672.16;5046175;28;20697;-67
2021/03/01 07:03:36;;;;;;;0.70;0.60;;;-0.80;99.90;;;-0.33;100.00;-20672.41;5036542;28;20220;-68
2021/03/01 07:06:07;;;;;;;1.05;0.95;;;-0.80;99.90;;;-0.27;100.00;-20674.09;5040724;28;20264;-67
2021/03/01 07:08:46;;;;;;;0.88;0.88;;;-0.80;99.90;;;-0.31;100.00;-20672.97;5050754;28;20193;-69
2021/03/01 07:11:26;;;;;;;0.70;0.60;;;-0.80;99.90;;;-0.28;100.00;-20673.97;5056407;28;20215;-69
2021/03/01 07:13:57;;;;;;;0.70;0.60;;;-0.70;99.90;;;-0.20;100.00;-20675.94;5055781;28;20202;-68
2021/03/01 07:16:25;;;;;;;0.70;0.60;;;-0.60;99.90;;;-0.07;100.00;-20679.72;5056236;28;20178;-68
2021/03/01 07:18:52;;;;;;;0.70;0.60;;;-0.60;99.90;;;0.20;100.00;-20686.97;5053833;28;20294;-68
2021/03/01 07:21:21;;;;;;;0.70;0.60;;;-0.40;99.90;;;0.21;100.00;-20687.41;5051541;28;20205;-68
2021/03/01 07:23:49;;;;;;;0.80;0.80;;;-0.30;99.90;;;0.28;100.00;-20689.22;5054538;28;20201;-68
2021/03/01 07:26:17;;;;;;;0.70;0.70;;;-0.10;99.90;;;0.42;100.00;-20693.13;5054453;28;20217;-68
2021/03/01 07:28:53;;;;;;;0.70;0.63;;;-0.10;99.90;;;0.42;100.00;-20693.00;5056139;28;20189;-68
2021/03/01 07:31:22;;;;;;;0.70;0.60;;;-0.10;99.90;;;0.51;100.00;-20695.38;5056056;28;20536;-69
2021/03/01 07:33:50;;;;;;;0.70;0.60;;;0.00;99.90;;;0.63;100.00;-20698.88;5055850;28;20220;-69
2021/03/01 07:36:18;;;;;;;0.77;0.70;;;0.10;99.90;;;0.83;100.00;-20704.31;5055713;28;20273;-68
2021/03/01 07:38:46;;;;;;;0.70;0.60;;;0.20;99.90;;;0.86;100.00;-20705.16;5055698;28;20222;-67
2021/03/01 07:41:13;;;;;;;0.70;0.60;;;0.30;99.90;;;0.99;100.00;-20708.53;5055381;28;20240;-68
2021/03/01 07:43:43;;;;;;;0.70;0.60;;;0.40;99.90;;;1.18;100.00;-20713.97;5055728;28;20185;-69
2021/03/01 07:46:10;;;;;;;0.80;0.70;;;0.60;99.90;;;1.23;100.00;-20715.22;5054994;28;20251;-68
2021/03/01 07:48:41;;;;;;;0.77;0.73;;;0.80;99.90;;;1.27;100.00;-20716.34;5054094;28;20304;-68
2021/03/01 07:51:12;;;;;;;0.70;0.60;;;0.90;99.90;;;1.49;100.00;-20722.22;5052997;28;20213;-67
2021/03/01 07:53:52;;;;;;;0.70;0.70;;;1.00;99.90;;;1.52;100.00;-20723.19;5071562;28;20570;-67
2021/03/01 07:56:47;;;;;;;0.70;0.60;;;1.10;99.90;;;1.70;100.00;-20728.09;5074951;28;20189;-68
2021/03/01 07:59:30;;;;;;;0.70;0.65;;;1.20;99.90;;;1.75;100.00;-20729.50;5047633;28;20204;-67
2021/03/01 08:02:22;;;;;;;0.77;0.70;;;1.20;99.90;;;1.87;100.00;-20732.84;5054215;28;20174;-67
2021/03/01 08:04:50;;;;;;;0.70;0.60;;;1.30;99.90;;;2.00;100.00;-20736.19;5055086;28;20224;-68
2021/03/01 08:07:18;;;;;;;0.80;0.70;;;1.30;99.90;;;2.11;100.00;-20739.28;5056180;28;20204;-67
2021/03/01 08:09:55;;;;;;;0.70;0.60;;;1.50;99.90;;;2.29;100.00;-20744.16;5055651;28;20189;-67
2021/03/01 08:12:55;;;;;;;0.70;0.60;;;1.70;99.90;;;2.41;100.00;-20747.66;5055104;28;20201;-68
2021/03/01 08:15:31;;;;;;;0.70;0.60;;;1.80;99.90;;;2.55;100.00;-20751.28;5055217;28;20181;-69
2021/03/01 08:17:59;;;;;;;0.73;0.70;;;1.90;99.90;;;2.78;100.00;-20757.69;5054262;28;20209;-67
2021/03/01 08:20:47;;;;;;;0.80;0.75;;;2.10;99.90;;;2.95;100.00;-20762.16;5051953;28;20273;-67
2021/03/01 08:23:19;;;;;;;0.70;0.60;;;2.30;99.90;;;3.17;100.00;-20768.31;5037740;28;20252;-68
2021/03/01 08:25:58;;;;;;;0.70;0.60;;;2.50;99.90;;;3.25;100.00;-20770.53;5054228;28;20201;-67
2021/03/01 08:28:44;;;;;;;0.70;0.60;;;2.60;99.90;;;3.36;100.00;-20773.59;5064561;28;20207;-67
2021/03/01 08:31:38;;;;;;;0.70;0.60;;;2.80;99.90;;;3.54;100.00;-20778.34;5074734;28;20185;-67
2021/03/01 08:34:36;;;;;;;0.70;0.63;;;2.90;99.90;;;3.77;100.00;-20784.75;5059881;28;20236;-67
2021/03/01 08:37:05;;;;;;;0.70;0.60;;;3.20;99.90;;;3.89;100.00;-20787.97;5074520;28;20232;-67
2021/03/01 08:40:01;;;;;;;0.70;0.60;;;3.30;99.90;;;4.06;100.00;-20792.56;5073753;28;20177;-67
2021/03/01 08:42:56;;;;;;;0.70;0.60;;;3.40;99.90;;;4.34;100.00;-20800.38;5074977;28;20185;-67
2021/03/01 08:45:30;;;;;;;0.70;0.60;;;3.60;99.90;;;4.38;100.00;-20801.19;5073495;28;20189;-68
2021/03/01 08:48:01;;;;;;;4.20;1.02;;;3.90;99.90;;;4.64;100.00;-20808.31;5074632;28;20240;-67
2021/03/01 08:50:31;;;;;;;0.70;0.60;;;4.10;99.90;;;5.13;100.00;-20821.81;5052364;28;20195;-68
2021/03/01 08:53:20;;;;;;;0.70;0.60;;;4.40;99.90;;;5.31;100.00;-20826.69;5058383;28;20681;-67
2021/03/01 08:55:47;;;;;;;0.70;0.57;;;4.60;99.90;;;5.28;100.00;-20825.84;5073387;28;20272;-68
2021/03/01 08:58:15;;;;;;;0.70;0.60;;;4.80;99.90;;;5.68;100.00;-20836.72;5063593;28;20538;-67
2021/03/01 09:00:54;;;;;;;0.67;0.50;;;5.00;99.90;;;6.17;100.00;-20850.19;5054403;28;20889;-67
2021/03/01 09:03:26;;;;;;;0.70;0.53;;;5.20;99.90;;;6.42;100.00;-20856.88;5053065;28;20935;-67
2021/03/01 09:06:04;;;;;;;1.00;0.80;;;5.80;99.90;;;7.11;100.00;-20875.78;5045166;28;20436;-67
2021/03/01 09:08:34;;;;;;;1.73;1.63;;;6.10;99.90;;;7.06;100.00;-20874.38;5054168;28;20469;-68
2021/03/01 09:11:05;;;;;;;0.70;0.50;;;6.40;99.90;;;7.30;100.00;-20880.78;5052733;28;20507;-69
2021/03/01 09:13:36;;;;;;;0.70;0.70;;;6.50;99.90;;;7.64;100.00;-20890.06;5051905;28;20502;-67
2021/03/01 09:16:08;;;;;;;0.70;0.50;;;7.00;99.90;;;8.15;100.00;-20904.09;5054311;28;20415;-67
2021/03/01 09:18:36;;;;;;;0.70;0.60;;;7.10;99.90;;;8.73;100.00;-20919.75;5054247;28;20490;-67
2021/03/01 09:21:05;;;;;;;0.80;0.70;;;7.50;99.90;;;10.03;100.00;-20955.09;5041529;28;20436;-67
2021/03/01 09:23:45;;;;;;;0.70;0.60;;;8.00;99.90;;;9.98;100.00;-20953.72;5033886;28;20446;-67
2021/03/01 09:26:22;;;;;;;0.83;0.80;;;8.60;99.90;;;10.67;100.00;-20972.25;5033913;28;20541;-67
2021/03/01 09:28:52;;;;;;;0.70;0.60;;;9.20;99.90;;;11.43;100.00;-20993.00;5073996;28;20421;-68
2021/03/01 09:31:29;;;;;;;1.20;1.10;;;9.30;99.90;;;13.10;100.00;-21038.00;5073791;28;20751;-68
2021/03/01 09:33:57;;;;;;;0.80;0.80;;;9.60;99.90;;;14.21;100.00;-21068.03;5073704;28;20536;-67
2021/03/01 09:36:28;;;;;;;0.80;0.60;;;9.80;99.90;;;12.92;100.00;-21033.31;5074150;28;20455;-69
2021/03/01 09:38:55;;;;;;;1.30;0.90;;;9.90;99.90;;;13.48;100.00;-21048.34;5073777;28;20411;-68
2021/03/01 09:41:43;;;;;;;0.90;0.90;;;10.20;99.90;;;13.16;100.00;-21039.66;5073832;28;20411;-67
2021/03/01 09:44:12;;;;;;;0.70;0.60;;;10.70;99.90;;;13.85;100.00;-21058.41;5059481;28;20427;-68
2021/03/01 09:46:40;;;;;;;0.80;0.63;;;10.70;99.90;;;13.46;100.00;-21047.78;5046492;28;20421;-68
2021/03/01 09:49:09;;;;;;;0.70;0.60;;;10.70;99.90;;;13.83;100.00;-21057.84;5052301;28;20509;-68
2021/03/01 09:51:37;;;;;;;0.80;0.70;;;11.00;99.90;;;13.63;100.00;-21052.47;5053839;28;20774;-68
2021/03/01 09:54:08;;;;;;;1.00;0.80;;;10.90;99.90;;;14.36;100.00;-21072.03;5050092;28;20881;-68
2021/03/01 09:56:40;;;;;;;0.70;0.60;;;11.40;99.90;;;13.93;100.00;-21060.59;5052850;28;20751;-68
2021/03/01 09:59:07;;;;;;;1.10;1.00;;;11.50;99.90;;;14.35;100.00;-21071.88;5045708;28;20958;-68
2021/03/01 10:01:35;;;;;;;0.80;0.70;;;11.80;99.90;;;14.29;100.00;-21070.25;5050114;28;20415;-68
2021/03/01 10:04:04;;;;;;;0.83;0.83;;;12.10;99.90;;;14.48;100.00;-21075.47;5054060;28;20440;-68
2021/03/01 10:06:33;;;;;;;0.70;0.60;;;11.90;99.90;;;14.31;100.00;-21070.78;5054262;28;20412;-68
2021/03/01 10:09:04;;;;;;;0.70;0.60;;;12.00;99.90;;;15.07;100.00;-21091.31;5054900;28;20432;-68
2021/03/01 10:11:32;;;;;;;1.03;0.93;;;11.80;99.90;;;14.78;100.00;-21083.47;5053615;28;20825;-68
2021/03/01 10:14:06;;;;;;;0.73;0.60;;;12.00;99.90;;;14.87;100.00;-21085.94;5043410;28;20471;-68
2021/03/01 10:16:37;;;;;;;0.70;0.50;;;12.60;99.90;;;15.97;100.00;-21115.38;5058681;28;20424;-68
2021/03/01 10:19:13;;;;;;;0.70;0.60;;;13.10;99.90;;;16.21;100.00;-21121.81;5058302;28;20958;-67
2021/03/01 10:21:41;;;;;;;0.90;0.70;;;12.70;99.90;;;15.07;100.00;-21091.16;5056149;28;20507;-67
2021/03/01 10:24:11;;;;;;;1.27;1.17;;;12.60;99.90;;;15.83;100.00;-21111.78;5072918;28;20775;-68
2021/03/01 10:26:53;;;;;;;0.70;0.60;;;13.30;99.90;;;16.36;100.00;-21126.06;5077018;28;20438;-67
2021/03/01 10:29:29;;;;;;;0.70;0.50;;;13.10;99.90;;;15.61;100.00;-21105.88;5076832;28;20411;-69
2021/03/01 10:31:57;;;;;;;1.20;0.70;;;12.80;99.90;;;15.38;100.00;-21099.69;5055228;28;20419;-68